
Distance (Route):
Temperature : 4.3°C
Humidity : 83.3%
Pressure : 0hPa| Receiver | Frames | First received | Last received |
|---|---|---|---|
| DL9RDZ-1 | 330 | 2026-09-03 11:06:13 | 2026-09-03 12:28:06 |
| Receiver | Date | Latitude | Longitude | Direction | Speed | Altitude | Climb | Temperature | Humidity | Pressure | Voltage | Killtimer | Uptime | BKT | XDATA |
|---|---|---|---|---|---|---|---|---|---|---|---|---|---|---|---|
| DL9RDZ-1 | 2026-09-03 12:28:06 | 64.14900 | -22.52528 | 220° | 26km/h | 602m | -13.5m/s | 4.3°C | 83.3% | 0hPa | 0V | 00:00:00 | 00:00:00 | 00:00:00 | |
| DL9RDZ-1 | 2026-09-03 12:27:55 | 64.14960 | -22.52437 | 221° | 24km/h | 750m | -14.1m/s | 2.9°C | 88.6% | 0hPa | 0V | 00:00:00 | 00:00:00 | 00:00:00 | |
| DL9RDZ-1 | 2026-09-03 12:27:45 | 64.15014 | -22.52337 | 219° | 29km/h | 889m | -14.0m/s | 1.7°C | 91.7% | 0hPa | 0V | 00:00:00 | 00:00:00 | 00:00:00 | |
| DL9RDZ-1 | 2026-09-03 12:27:35 | 64.15069 | -22.52215 | 229° | 31km/h | 1024m | -14.0m/s | 0.9°C | 93.8% | 0hPa | 0V | 00:00:00 | 00:00:00 | 00:00:00 | |
| DL9RDZ-1 | 2026-09-03 12:27:24 | 64.15138 | -22.52072 | 226° | 27km/h | 1188m | -14.6m/s | 0.5°C | 91.5% | 0hPa | 0V | 08:15:00 | 00:00:00 | 00:00:00 | |
| DL9RDZ-1 | 2026-09-03 12:27:13 | 64.15182 | -22.51945 | 232° | 27km/h | 1326m | -13.3m/s | -0.1°C | 91.7% | 0hPa | 0V | 08:15:00 | 00:00:00 | 00:00:00 | |
| DL9RDZ-1 | 2026-09-03 12:27:02 | 64.15224 | -22.51859 | 210° | 18km/h | 1473m | -14.6m/s | -0.4°C | 88.3% | 0hPa | 0V | 08:15:00 | 00:00:00 | 00:00:00 | |
| DL9RDZ-1 | 2026-09-03 12:26:51 | 64.15257 | -22.51845 | 148° | 7km/h | 1624m | -14.8m/s | -1.4°C | 96.7% | 0hPa | 0V | 08:15:00 | 00:00:00 | 00:00:00 | |
| DL9RDZ-1 | 2026-09-03 12:26:41 | 64.15263 | -22.51832 | 289° | 7km/h | 1761m | -14.8m/s | -1.7°C | 92.5% | 0hPa | 0V | 08:16:00 | 00:00:00 | 00:00:00 | |
| DL9RDZ-1 | 2026-09-03 12:26:31 | 64.15255 | -22.51779 | 296° | 13km/h | 1902m | -14.5m/s | -2.7°C | 96.8% | 0hPa | 0V | 08:16:00 | 00:00:00 | 00:00:00 | |
| DL9RDZ-1 | 2026-09-03 12:26:20 | 64.15224 | -22.51680 | 321° | 22km/h | 2059m | -14.4m/s | -3.5°C | 96.9% | 0hPa | 0V | 08:16:00 | 00:00:00 | 00:00:00 | |
| DL9RDZ-1 | 2026-09-03 12:26:10 | 64.15190 | -22.51612 | 318° | 11km/h | 2199m | -14.7m/s | -4.3°C | 96.8% | 0hPa | 0V | 08:16:00 | 00:00:00 | 00:00:00 | |
| DL9RDZ-1 | 2026-09-03 12:25:59 | 64.15177 | -22.51564 | 274° | 7km/h | 2352m | -13.7m/s | -5.2°C | 99.9% | 0hPa | 0V | 08:16:00 | 00:00:00 | 00:00:00 | |
| DL9RDZ-1 | 2026-09-03 12:25:48 | 64.15181 | -22.51519 | 269° | 7km/h | 2505m | -14.6m/s | -6.4°C | 99.4% | 0hPa | 0V | 08:16:00 | 00:00:00 | 00:00:00 | |
| DL9RDZ-1 | 2026-09-03 12:25:38 | 64.15189 | -22.51465 | 245° | 15km/h | 2646m | -15.3m/s | -7.0°C | 94.8% | 0hPa | 0V | 08:16:00 | 00:00:00 | 00:00:00 | |
| DL9RDZ-1 | 2026-09-03 12:25:27 | 64.15213 | -22.51390 | 237° | 15km/h | 2806m | -14.6m/s | -7.6°C | 92.6% | 0hPa | 0V | 08:16:00 | 00:00:00 | 00:00:00 | |
| DL9RDZ-1 | 2026-09-03 12:25:17 | 64.15223 | -22.51295 | 253° | 18km/h | 2954m | -15.7m/s | -8.0°C | 86.6% | 0hPa | 0V | 08:16:00 | 00:00:00 | 00:00:00 | |
| DL9RDZ-1 | 2026-09-03 12:25:06 | 64.15234 | -22.51177 | 268° | 16km/h | 3116m | -15.4m/s | -8.5°C | 87.4% | 0hPa | 0V | 08:16:00 | 00:00:00 | 00:00:00 | |
| DL9RDZ-1 | 2026-09-03 12:24:55 | 64.15236 | -22.51071 | 274° | 20km/h | 3278m | -14.3m/s | -8.9°C | 88.8% | 0hPa | 0V | 08:17:00 | 00:00:00 | 00:00:00 | |
| DL9RDZ-1 | 2026-09-03 12:24:35 | 64.15199 | -22.50859 | 295° | 27km/h | 3572m | -15.3m/s | -10.3°C | 92.3% | 0hPa | 0V | 08:17:00 | 00:00:00 | 00:00:00 | |
| DL9RDZ-1 | 2026-09-03 12:24:25 | 64.15174 | -22.50719 | 289° | 27km/h | 3722m | -16.3m/s | -11.2°C | 95.8% | 0hPa | 0V | 08:17:00 | 00:00:00 | 00:00:00 | |
| DL9RDZ-1 | 2026-09-03 12:24:15 | 64.15160 | -22.50576 | 277° | 24km/h | 3878m | -16.0m/s | -12.1°C | 90.7% | 0hPa | 0V | 08:17:00 | 00:00:00 | 00:00:00 | |
| DL9RDZ-1 | 2026-09-03 12:24:05 | 64.15150 | -22.50442 | 279° | 22km/h | 4033m | -15.8m/s | -13.1°C | 91.6% | 0hPa | 0V | 08:18:00 | 00:00:00 | 00:00:00 | |
| DL9RDZ-1 | 2026-09-03 12:23:54 | 64.15137 | -22.50317 | 287° | 22km/h | 4203m | -15.9m/s | -13.2°C | 78.8% | 0hPa | 0V | 08:18:00 | 00:00:00 | 00:00:00 | |
| DL9RDZ-1 | 2026-09-03 12:23:43 | 64.15118 | -22.50203 | 304° | 18km/h | 4376m | -16.8m/s | -14.4°C | 79.9% | 0hPa | 0V | 08:18:00 | 00:00:00 | 00:00:00 | |
| DL9RDZ-1 | 2026-09-03 12:23:32 | 64.15094 | -22.50118 | 320° | 16km/h | 4548m | -16.5m/s | -15.8°C | 90.1% | 0hPa | 0V | 08:18:00 | 00:00:00 | 00:00:00 | |
| DL9RDZ-1 | 2026-09-03 12:23:22 | 64.15065 | -22.50079 | 329° | 11km/h | 4709m | -16.6m/s | -16.6°C | 92.9% | 0hPa | 0V | 08:18:00 | 00:00:00 | 00:00:00 | |
| DL9RDZ-1 | 2026-09-03 12:23:12 | 64.15036 | -22.50064 | 358° | 15km/h | 4884m | -16.4m/s | -17.5°C | 90.0% | 0hPa | 0V | 08:19:00 | 00:00:00 | 00:00:00 | |
| DL9RDZ-1 | 2026-09-03 12:23:00 | 64.14989 | -22.50064 | 350° | 22km/h | 5060m | -16.5m/s | -18.7°C | 85.6% | 0hPa | 0V | 08:19:00 | 00:00:00 | 00:00:00 | |
| DL9RDZ-1 | 2026-09-03 12:22:49 | 64.14928 | -22.50039 | 352° | 22km/h | 5243m | -16.6m/s | -20.1°C | 86.9% | 0hPa | 0V | 08:19:00 | 00:00:00 | 00:00:00 | |
| DL9RDZ-1 | 2026-09-03 12:22:40 | 64.14880 | -22.50010 | 334° | 18km/h | 5405m | -17.0m/s | -21.2°C | 93.0% | 0hPa | 0V | 08:19:00 | 00:00:00 | 00:00:00 | |
| DL9RDZ-1 | 2026-09-03 12:22:28 | 64.14841 | -22.49956 | 329° | 18km/h | 5591m | -17.7m/s | -22.5°C | 90.2% | 0hPa | 0V | 08:19:00 | 00:00:00 | 00:00:00 | |
| DL9RDZ-1 | 2026-09-03 12:22:17 | 64.14801 | -22.49887 | 320° | 16km/h | 5777m | -17.0m/s | -23.8°C | 86.7% | 0hPa | 0V | 08:20:00 | 00:00:00 | 00:00:00 | |
| DL9RDZ-1 | 2026-09-03 12:22:06 | 64.14754 | -22.49799 | 322° | 24km/h | 5964m | -17.1m/s | -25.4°C | 94.2% | 0hPa | 0V | 08:20:00 | 00:00:00 | 00:00:00 | |
| DL9RDZ-1 | 2026-09-03 12:21:55 | 64.14700 | -22.49690 | 314° | 26km/h | 6155m | -17.9m/s | -27.1°C | 0% | 0hPa | 0V | 08:20:00 | 00:00:00 | 00:00:00 | |
| DL9RDZ-1 | 2026-09-03 12:21:44 | 64.14642 | -22.49558 | 317° | 33km/h | 6348m | -17.7m/s | -28.7°C | 59.3% | 0hPa | 0V | 08:20:00 | 00:00:00 | 00:00:00 | |
| DL9RDZ-1 | 2026-09-03 12:21:33 | 64.14584 | -22.49419 | 314° | 29km/h | 6543m | -18.2m/s | -30.0°C | 43.4% | 0hPa | 0V | 08:21:00 | 00:00:00 | 00:00:00 | |
| DL9RDZ-1 | 2026-09-03 12:21:23 | 64.14545 | -22.49285 | 306° | 27km/h | 6721m | -18.9m/s | -31.5°C | 47.0% | 0hPa | 0V | 08:21:00 | 00:00:00 | 00:00:00 | |
| DL9RDZ-1 | 2026-09-03 12:21:13 | 64.14509 | -22.49121 | 290° | 31km/h | 6923m | -18.5m/s | -33.0°C | 49.2% | 0hPa | 0V | 08:21:00 | 00:00:00 | 00:00:00 | |
| DL9RDZ-1 | 2026-09-03 12:21:01 | 64.14487 | -22.48951 | 287° | 27km/h | 7129m | -19.7m/s | -34.7°C | 54.3% | 0hPa | 0V | 08:21:00 | 00:00:00 | 00:00:00 | |
| DL9RDZ-1 | 2026-09-03 12:20:51 | 64.14471 | -22.48804 | 287° | 24km/h | 7316m | -19.2m/s | -36.5°C | 69.6% | 0hPa | 0V | 08:21:00 | 00:00:00 | 00:00:00 | |
| DL9RDZ-1 | 2026-09-03 12:20:40 | 64.14454 | -22.48656 | 288° | 22km/h | 7518m | -19.4m/s | -38.4°C | 72.5% | 0hPa | 0V | 08:21:00 | 00:00:00 | 00:00:00 | |
| DL9RDZ-1 | 2026-09-03 12:20:29 | 64.14435 | -22.48508 | 295° | 26km/h | 7720m | -19.1m/s | -40.2°C | 72.0% | 0hPa | 0V | 08:21:00 | 00:00:00 | 00:00:00 | |
| DL9RDZ-1 | 2026-09-03 12:20:10 | 64.14385 | -22.48207 | 286° | 27km/h | 8109m | -17.8m/s | -43.7°C | 62.2% | 0hPa | 0V | 00:00:00 | 00:00:00 | 00:00:00 | |
| DL9RDZ-1 | 2026-09-03 12:19:57 | 64.14364 | -22.48037 | 298° | 26km/h | 8302m | -18.8m/s | -45.4°C | 37.7% | 0hPa | 0V | 08:21:00 | 00:00:00 | 00:00:00 | |
| DL9RDZ-1 | 2026-09-03 12:19:46 | 64.14325 | -22.47885 | 304° | 27km/h | 8512m | -20.5m/s | -46.7°C | 31.6% | 0hPa | 0V | 08:22:00 | 00:00:00 | 00:00:00 | |
| DL9RDZ-1 | 2026-09-03 12:19:35 | 64.14290 | -22.47739 | 299° | 26km/h | 8739m | -20.5m/s | -48.2°C | 27.7% | 0hPa | 0V | 08:22:00 | 00:00:00 | 00:00:00 | |
| DL9RDZ-1 | 2026-09-03 12:19:26 | 64.14245 | -22.47599 | 314° | 33km/h | 8934m | -20.8m/s | -49.2°C | 26.6% | 0hPa | 0V | 08:22:00 | 00:00:00 | 00:00:00 | |
| DL9RDZ-1 | 2026-09-03 12:19:14 | 64.14178 | -22.47464 | 326° | 31km/h | 9146m | -20.0m/s | -50.3°C | 26.9% | 0hPa | 0V | 08:22:00 | 00:00:00 | 00:00:00 | |
| DL9RDZ-1 | 2026-09-03 12:19:03 | 64.14091 | -22.47333 | 329° | 38km/h | 9371m | -20.8m/s | -50.5°C | 22.5% | 0hPa | 0V | 08:23:00 | 00:00:00 | 00:00:00 | |
| DL9RDZ-1 | 2026-09-03 12:18:53 | 64.14018 | -22.47231 | 333° | 29km/h | 9576m | -21.0m/s | -51.3°C | 21.6% | 0hPa | 0V | 08:23:00 | 00:00:00 | 00:00:00 | |
| DL9RDZ-1 | 2026-09-03 12:18:42 | 64.13933 | -22.47123 | 334° | 38km/h | 9802m | -21.2m/s | -52.2°C | 18.2% | 0hPa | 0V | 08:23:00 | 00:00:00 | 00:00:00 | |
| DL9RDZ-1 | 2026-09-03 12:18:29 | 64.13824 | -22.47016 | 337° | 38km/h | 10085m | -20.9m/s | -52.7°C | 13.0% | 0hPa | 0V | 08:23:00 | 00:00:00 | 00:00:00 | |
| DL9RDZ-1 | 2026-09-03 12:18:18 | 64.13727 | -22.46944 | 342° | 37km/h | 10315m | -20.8m/s | -53.0°C | 9.0% | 0hPa | 0V | 08:23:00 | 00:00:00 | 00:00:00 | |
| DL9RDZ-1 | 2026-09-03 12:18:08 | 64.13631 | -22.46899 | 358° | 35km/h | 10542m | -20.9m/s | -50.4°C | 4.4% | 0hPa | 0V | 08:24:00 | 00:00:00 | 00:00:00 | |
| DL9RDZ-1 | 2026-09-03 12:17:57 | 64.13555 | -22.46904 | 360° | 22km/h | 10760m | -22.2m/s | -49.9°C | 3.1% | 0hPa | 0V | 08:24:00 | 00:00:00 | 00:00:00 | |
| DL9RDZ-1 | 2026-09-03 12:17:46 | 64.13477 | -22.46910 | 12° | 29km/h | 11004m | -22.5m/s | -47.9°C | 1.9% | 0hPa | 0V | 08:24:00 | 00:00:00 | 00:00:00 | |
| DL9RDZ-1 | 2026-09-03 12:17:36 | 64.13418 | -22.46951 | 19° | 18km/h | 11236m | -23.9m/s | -47.8°C | 1.7% | 0hPa | 0V | 08:24:00 | 00:00:00 | 00:00:00 | |
| DL9RDZ-1 | 2026-09-03 12:17:25 | 64.13352 | -22.46984 | 17° | 27km/h | 11492m | -23.6m/s | -46.9°C | 1.5% | 0hPa | 0V | 08:24:00 | 00:00:00 | 00:00:00 | |
| DL9RDZ-1 | 2026-09-03 12:17:14 | 64.13283 | -22.47066 | 32° | 26km/h | 11756m | -24.8m/s | -46.3°C | 1.3% | 0hPa | 0V | 08:25:00 | 00:00:00 | 00:00:00 | |
| DL9RDZ-1 | 2026-09-03 12:17:03 | 64.13222 | -22.47149 | 32° | 24km/h | 12021m | -24.1m/s | -45.8°C | 1.2% | 0hPa | 0V | 08:25:00 | 00:00:00 | 00:00:00 | |
| DL9RDZ-1 | 2026-09-03 12:16:53 | 64.13169 | -22.47219 | 38° | 24km/h | 12272m | -25.9m/s | -45.7°C | 1.3% | 0hPa | 0V | 08:25:00 | 00:00:00 | 00:00:00 | |
| DL9RDZ-1 | 2026-09-03 12:16:43 | 64.13102 | -22.47317 | 35° | 31km/h | 12553m | -25.5m/s | -45.9°C | 1.1% | 0hPa | 0V | 08:25:00 | 00:00:00 | 00:00:00 | |
| DL9RDZ-1 | 2026-09-03 12:16:32 | 64.13038 | -22.47430 | 40° | 37km/h | 12808m | -26.3m/s | -44.9°C | 1.0% | 0hPa | 0V | 08:25:00 | 00:00:00 | 00:00:00 | |
| DL9RDZ-1 | 2026-09-03 12:16:22 | 64.12981 | -22.47551 | 46° | 31km/h | 13075m | -26.9m/s | -45.5°C | 1.0% | 0hPa | 0V | 08:26:00 | 00:00:00 | 00:00:00 | |
| DL9RDZ-1 | 2026-09-03 12:16:12 | 64.12924 | -22.47684 | 49° | 31km/h | 13360m | -26.5m/s | -45.5°C | 1.0% | 0hPa | 0V | 08:26:00 | 00:00:00 | 00:00:00 | |
| DL9RDZ-1 | 2026-09-03 12:15:47 | 64.12807 | -22.47999 | 43° | 26km/h | 14019m | -27.9m/s | -44.6°C | 0.9% | 0hPa | 0V | 08:26:00 | 00:00:00 | 00:00:00 | |
| DL9RDZ-1 | 2026-09-03 12:15:37 | 64.12753 | -22.48104 | 53° | 31km/h | 14311m | -30.6m/s | -44.8°C | 0.8% | 0hPa | 0V | 08:27:00 | 00:00:00 | 00:00:00 | |
| DL9RDZ-1 | 2026-09-03 12:15:27 | 64.12703 | -22.48237 | 51° | 33km/h | 14615m | -29.4m/s | -45.2°C | 0.9% | 0hPa | 0V | 08:27:00 | 00:00:00 | 00:00:00 | |
| DL9RDZ-1 | 2026-09-03 12:15:18 | 64.12650 | -22.48381 | 53° | 35km/h | 14904m | -30.2m/s | -45.7°C | 0.9% | 0hPa | 0V | 08:27:00 | 00:00:00 | 00:00:00 | |
| DL9RDZ-1 | 2026-09-03 12:14:58 | 64.12547 | -22.48689 | 53° | 31km/h | 15527m | -32.9m/s | -45.8°C | 0.9% | 0hPa | 0V | 08:27:00 | 00:00:00 | 00:00:00 | |
| DL9RDZ-1 | 2026-09-03 12:14:46 | 64.12503 | -22.48867 | 59° | 37km/h | 15878m | -33.0m/s | -46.5°C | 0.9% | 0hPa | 0V | 08:27:00 | 00:00:00 | 00:00:00 | |
| DL9RDZ-1 | 2026-09-03 12:14:36 | 64.12455 | -22.49046 | 45° | 31km/h | 16239m | -33.8m/s | -45.8°C | 0.8% | 0hPa | 0V | 08:27:00 | 00:00:00 | 00:00:00 | |
| DL9RDZ-1 | 2026-09-03 12:14:11 | 64.12332 | -22.49445 | 56° | 31km/h | 17036m | -34.0m/s | -45.1°C | 0.7% | 0hPa | 0V | 08:27:00 | 00:00:00 | 00:00:00 | |
| DL9RDZ-1 | 2026-09-03 12:14:00 | 64.12287 | -22.49601 | 57° | 33km/h | 17424m | -36.0m/s | -45.6°C | 0.8% | 0hPa | 0V | 08:27:00 | 00:00:00 | 00:00:00 | |
| DL9RDZ-1 | 2026-09-03 12:13:49 | 64.12224 | -22.49776 | 55° | 44km/h | 17835m | -38.1m/s | -46.5°C | 0.8% | 0hPa | 0V | 08:28:00 | 00:00:00 | 00:00:00 | |
| DL9RDZ-1 | 2026-09-03 12:13:39 | 64.12172 | -22.49980 | 57° | 35km/h | 18221m | -39.1m/s | -46.5°C | 0.8% | 0hPa | 0V | 08:28:00 | 00:00:00 | 00:00:00 | |
| DL9RDZ-1 | 2026-09-03 12:13:12 | 64.12045 | -22.50467 | 61° | 27km/h | 19295m | -41.3m/s | -46.5°C | 0.8% | 0hPa | 0V | 08:28:00 | 00:00:00 | 00:00:00 | |
| DL9RDZ-1 | 2026-09-03 12:13:01 | 64.12006 | -22.50593 | 45° | 27km/h | 19690m | -37.3m/s | -47.0°C | 0.8% | 0hPa | 0V | 08:29:00 | 00:00:00 | 00:00:00 | |
| DL9RDZ-1 | 2026-09-03 12:12:50 | 64.11934 | -22.50709 | 32° | 35km/h | 20145m | -45.0m/s | -46.7°C | 0.7% | 0hPa | 0V | 08:29:00 | 00:00:00 | 00:00:00 | |
| DL9RDZ-1 | 2026-09-03 12:12:39 | 64.11866 | -22.50890 | 68° | 38km/h | 20638m | -43.0m/s | -46.4°C | 0.7% | 0hPa | 0V | 08:29:00 | 00:00:00 | 00:00:00 | |
| DL9RDZ-1 | 2026-09-03 12:12:02 | 64.11742 | -22.51443 | 49° | 29km/h | 22409m | -50.8m/s | -47.1°C | 0.7% | 0hPa | 0V | 00:00:00 | 00:00:00 | 00:00:00 | |
| DL9RDZ-1 | 2026-09-03 12:11:46 | 64.11645 | -22.51697 | 50° | 44km/h | 23205m | -54.2m/s | -47.3°C | 0.8% | 0hPa | 0V | 00:00:00 | 00:00:00 | 00:00:00 | |
| DL9RDZ-1 | 2026-09-03 12:10:22 | 64.11348 | -22.53435 | 75° | 40km/h | 23927m | 6.4m/s | -45.8°C | 0.7% | 0hPa | 0V | 00:00:00 | 00:00:00 | 00:00:00 | |
| DL9RDZ-1 | 2026-09-03 12:10:12 | 64.11304 | -22.53599 | 44° | 35km/h | 23866m | 6.3m/s | -46.2°C | 0.7% | 0hPa | 0V | 00:00:00 | 00:00:00 | 00:00:00 | |
| DL9RDZ-1 | 2026-09-03 12:10:03 | 64.11242 | -22.53741 | 47° | 37km/h | 23804m | 5.4m/s | -46.1°C | 0.7% | 0hPa | 0V | 00:00:00 | 00:00:00 | 00:00:00 | |
| DL9RDZ-1 | 2026-09-03 12:09:37 | 64.11130 | -22.54179 | 51° | 37km/h | 23658m | 4.5m/s | -46.7°C | 0.7% | 0hPa | 0V | 00:00:00 | 00:00:00 | 00:00:00 | |
| DL9RDZ-1 | 2026-09-03 12:09:20 | 64.11033 | -22.54516 | 48° | 46km/h | 23552m | 3.5m/s | -47.2°C | 0.7% | 0hPa | 0V | 00:00:00 | 00:00:00 | 00:00:00 | |
| DL9RDZ-1 | 2026-09-03 12:09:10 | 64.10957 | -22.54707 | 40° | 47km/h | 23488m | 5.8m/s | -47.6°C | 0.8% | 0hPa | 0V | 00:00:00 | 00:00:00 | 00:00:00 | |
| DL9RDZ-1 | 2026-09-03 12:08:50 | 64.10792 | -22.55042 | 39° | 44km/h | 23359m | 7.3m/s | -47.8°C | 0.7% | 0hPa | 0V | 00:00:00 | 00:00:00 | 00:00:00 | |
| DL9RDZ-1 | 2026-09-03 12:08:39 | 64.10727 | -22.55227 | 50° | 49km/h | 23299m | 5.7m/s | -48.1°C | 0.8% | 0hPa | 0V | 00:00:00 | 00:00:00 | 00:00:00 | |
| DL9RDZ-1 | 2026-09-03 12:08:19 | 64.10523 | -22.55611 | 22° | 40km/h | 23171m | 4.7m/s | -48.5°C | 0.8% | 0hPa | 0V | 00:00:00 | 00:00:00 | 00:00:00 | |
| DL9RDZ-1 | 2026-09-03 12:07:31 | 64.10220 | -22.56182 | 66° | 38km/h | 22880m | 6.6m/s | -48.2°C | 0.8% | 0hPa | 0V | 00:00:00 | 00:00:00 | 00:00:00 | |
| DL9RDZ-1 | 2026-09-03 12:07:10 | 64.10103 | -22.56586 | 61° | 40km/h | 22746m | 6.5m/s | -47.9°C | 0.8% | 0hPa | 0V | 00:00:00 | 00:00:00 | 00:00:00 | |
| DL9RDZ-1 | 2026-09-03 12:06:58 | 64.10035 | -22.56800 | 58° | 38km/h | 22681m | 4.8m/s | -47.8°C | 0.8% | 0hPa | 0V | 00:00:00 | 00:00:00 | 00:00:00 | |
| DL9RDZ-1 | 2026-09-03 12:06:49 | 64.09979 | -22.56951 | 40° | 27km/h | 22620m | 5.3m/s | -47.8°C | 0.8% | 0hPa | 0V | 00:00:00 | 00:00:00 | 00:00:00 | |
| DL9RDZ-1 | 2026-09-03 12:06:38 | 64.09923 | -22.57057 | 45° | 37km/h | 22562m | 6.6m/s | -48.2°C | 0.8% | 0hPa | 0V | 00:00:00 | 00:00:00 | 00:00:00 | |
| DL9RDZ-1 | 2026-09-03 12:06:28 | 64.09854 | -22.57108 | 22° | 22km/h | 22499m | 6.7m/s | -48.1°C | 0.8% | 0hPa | 0V | 00:00:00 | 00:00:00 | 00:00:00 | |
| DL9RDZ-1 | 2026-09-03 12:06:16 | 64.09796 | -22.57156 | 12° | 22km/h | 22433m | 5.7m/s | -48.1°C | 0.8% | 0hPa | 0V | 00:00:00 | 00:00:00 | 00:00:00 | |
| DL9RDZ-1 | 2026-09-03 12:06:05 | 64.09754 | -22.57191 | 32° | 15km/h | 22369m | 6.7m/s | -47.9°C | 0.8% | 0hPa | 0V | 00:00:00 | 00:00:00 | 00:00:00 | |
| DL9RDZ-1 | 2026-09-03 12:05:55 | 64.09719 | -22.57253 | 50° | 9km/h | 22311m | 4.9m/s | -47.9°C | 0.8% | 0hPa | 0V | 00:00:00 | 00:00:00 | 00:00:00 | |
| DL9RDZ-1 | 2026-09-03 12:05:45 | 64.09711 | -22.57349 | 69° | 16km/h | 22247m | 5.4m/s | -47.8°C | 0.8% | 0hPa | 0V | 00:00:00 | 00:00:00 | 00:00:00 | |
| DL9RDZ-1 | 2026-09-03 12:05:33 | 64.09702 | -22.57500 | 86° | 29km/h | 22183m | 4.7m/s | -47.8°C | 0.8% | 0hPa | 0V | 00:00:00 | 00:00:00 | 00:00:00 | |
| DL9RDZ-1 | 2026-09-03 12:05:23 | 64.09691 | -22.57694 | 75° | 33km/h | 22120m | 6.0m/s | -48.1°C | 0.8% | 0hPa | 0V | 00:00:00 | 00:00:00 | 00:00:00 | |
| DL9RDZ-1 | 2026-09-03 12:05:11 | 64.09677 | -22.57963 | 69° | 37km/h | 22049m | 4.4m/s | -48.1°C | 0.8% | 0hPa | 0V | 00:00:00 | 00:00:00 | 00:00:00 | |
| DL9RDZ-1 | 2026-09-03 12:04:54 | 64.09624 | -22.58315 | 53° | 42km/h | 21956m | 4.9m/s | -48.2°C | 0.8% | 0hPa | 0V | 00:00:00 | 00:00:00 | 00:00:00 | |
| DL9RDZ-1 | 2026-09-03 12:03:22 | 64.09167 | -22.59718 | 19° | 27km/h | 21400m | 7.3m/s | -47.9°C | 0.8% | 0hPa | 0V | 00:00:00 | 00:00:00 | 00:00:00 | |
| DL9RDZ-1 | 2026-09-03 12:03:13 | 64.09125 | -22.59797 | 45° | 24km/h | 21338m | 5.6m/s | -47.7°C | 0.8% | 0hPa | 0V | 00:00:00 | 00:00:00 | 00:00:00 | |
| DL9RDZ-1 | 2026-09-03 12:03:01 | 64.09075 | -22.59857 | 60° | 20km/h | 21275m | 5.9m/s | -47.8°C | 0.9% | 0hPa | 0V | 00:00:00 | 00:00:00 | 00:00:00 | |
| DL9RDZ-1 | 2026-09-03 12:01:45 | 64.08912 | -22.60986 | 92° | 27km/h | 20802m | 5.7m/s | -46.9°C | 0.8% | 0hPa | 0V | 00:00:00 | 00:00:00 | 00:00:00 | |
| DL9RDZ-1 | 2026-09-03 12:00:35 | 64.08493 | -22.62274 | 41° | 42km/h | 20368m | 7.0m/s | -47.3°C | 0.8% | 0hPa | 0V | 00:00:00 | 00:00:00 | 00:00:00 | |
| DL9RDZ-1 | 2026-09-03 11:59:10 | 64.07915 | -22.63155 | 30° | 33km/h | 19874m | 5.9m/s | -47.5°C | 0.9% | 0hPa | 0V | 00:00:00 | 00:00:00 | 00:00:00 | |
| DL9RDZ-1 | 2026-09-03 11:58:54 | 64.07835 | -22.63306 | 44° | 13km/h | 19779m | 7.0m/s | -47.6°C | 0.9% | 0hPa | 0V | 00:00:00 | 00:00:00 | 00:00:00 | |
| DL9RDZ-1 | 2026-09-03 11:58:42 | 64.07796 | -22.63457 | 54° | 26km/h | 19720m | 6.1m/s | -47.6°C | 0.9% | 0hPa | 0V | 00:00:00 | 00:00:00 | 00:00:00 | |
| DL9RDZ-1 | 2026-09-03 11:58:32 | 64.07763 | -22.63597 | 70° | 20km/h | 19657m | 6.0m/s | -47.5°C | 0.9% | 0hPa | 0V | 00:00:00 | 00:00:00 | 00:00:00 | |
| DL9RDZ-1 | 2026-09-03 11:58:21 | 64.07731 | -22.63730 | 72° | 35km/h | 19603m | 5.9m/s | -47.3°C | 0.9% | 0hPa | 0V | 00:00:00 | 00:00:00 | 00:00:00 | |
| DL9RDZ-1 | 2026-09-03 11:57:34 | 64.07591 | -22.64495 | 69° | 40km/h | 19341m | 6.5m/s | -47.3°C | 0.9% | 0hPa | 0V | 00:00:00 | 00:00:00 | 00:00:00 | |
| DL9RDZ-1 | 2026-09-03 11:57:24 | 64.07555 | -22.64690 | 69° | 33km/h | 19280m | 6.9m/s | -47.0°C | 0.9% | 0hPa | 0V | 00:00:00 | 00:00:00 | 00:00:00 | |
| DL9RDZ-1 | 2026-09-03 11:57:13 | 64.07506 | -22.64893 | 73° | 29km/h | 19219m | 4.6m/s | -46.8°C | 0.9% | 0hPa | 0V | 00:00:00 | 00:00:00 | 00:00:00 | |
| DL9RDZ-1 | 2026-09-03 11:57:01 | 64.07475 | -22.65110 | 64° | 31km/h | 19158m | 5.1m/s | -46.5°C | 0.8% | 0hPa | 0V | 00:00:00 | 00:00:00 | 00:00:00 | |
| DL9RDZ-1 | 2026-09-03 11:56:50 | 64.07435 | -22.65325 | 60° | 40km/h | 19100m | 5.8m/s | -46.8°C | 0.8% | 0hPa | 0V | 00:00:00 | 00:00:00 | 00:00:00 | |
| DL9RDZ-1 | 2026-09-03 11:56:40 | 64.07369 | -22.65517 | 49° | 47km/h | 19043m | 3.1m/s | -46.7°C | 0.9% | 0hPa | 0V | 00:00:00 | 00:00:00 | 00:00:00 | |
| DL9RDZ-1 | 2026-09-03 11:56:31 | 64.07307 | -22.65678 | 58° | 40km/h | 18990m | 6.3m/s | -46.7°C | 0.8% | 0hPa | 0V | 00:00:00 | 00:00:00 | 00:00:00 | |
| DL9RDZ-1 | 2026-09-03 11:56:20 | 64.07255 | -22.65908 | 66° | 40km/h | 18925m | 5.0m/s | -46.7°C | 0.9% | 0hPa | 0V | 00:00:00 | 00:00:00 | 00:00:00 | |
| DL9RDZ-1 | 2026-09-03 11:56:08 | 64.07204 | -22.66141 | 64° | 44km/h | 18861m | 5.9m/s | -47.0°C | 0.9% | 0hPa | 0V | 00:00:00 | 00:00:00 | 00:00:00 | |
| DL9RDZ-1 | 2026-09-03 11:55:58 | 64.07143 | -22.66369 | 53° | 40km/h | 18797m | 6.3m/s | -47.0°C | 0.9% | 0hPa | 0V | 00:00:00 | 00:00:00 | 00:00:00 | |
| DL9RDZ-1 | 2026-09-03 11:55:47 | 64.07076 | -22.66599 | 56° | 42km/h | 18733m | 5.1m/s | -46.9°C | 0.9% | 0hPa | 0V | 00:00:00 | 00:00:00 | 00:00:00 | |
| DL9RDZ-1 | 2026-09-03 11:55:36 | 64.06998 | -22.66797 | 49° | 35km/h | 18671m | 4.9m/s | -47.1°C | 0.9% | 0hPa | 0V | 00:00:00 | 00:00:00 | 00:00:00 | |
| DL9RDZ-1 | 2026-09-03 11:55:24 | 64.06927 | -22.66946 | 52° | 29km/h | 18605m | 6.6m/s | -47.1°C | 0.9% | 0hPa | 0V | 00:00:00 | 00:00:00 | 00:00:00 | |
| DL9RDZ-1 | 2026-09-03 11:55:14 | 64.06866 | -22.67056 | 39° | 26km/h | 18539m | 6.2m/s | -46.9°C | 0.9% | 0hPa | 0V | 00:00:00 | 00:00:00 | 00:00:00 | |
| DL9RDZ-1 | 2026-09-03 11:55:02 | 64.06825 | -22.67175 | 45° | 24km/h | 18473m | 5.1m/s | -46.7°C | 0.9% | 0hPa | 0V | 00:00:00 | 00:00:00 | 00:00:00 | |
| DL9RDZ-1 | 2026-09-03 11:54:52 | 64.06796 | -22.67308 | 71° | 31km/h | 18417m | 4.9m/s | -46.5°C | 0.9% | 0hPa | 0V | 00:00:00 | 00:00:00 | 00:00:00 | |
| DL9RDZ-1 | 2026-09-03 11:54:41 | 64.06757 | -22.67457 | 73° | 33km/h | 18356m | 7.6m/s | -46.4°C | 0.9% | 0hPa | 0V | 00:00:00 | 00:00:00 | 00:00:00 | |
| DL9RDZ-1 | 2026-09-03 11:54:30 | 64.06718 | -22.67625 | 48° | 29km/h | 18293m | 6.7m/s | -46.2°C | 0.9% | 0hPa | 0V | 00:00:00 | 00:00:00 | 00:00:00 | |
| DL9RDZ-1 | 2026-09-03 11:54:20 | 64.06669 | -22.67776 | 72° | 29km/h | 18233m | 4.4m/s | -46.1°C | 0.9% | 0hPa | 0V | 00:00:00 | 00:00:00 | 00:00:00 | |
| DL9RDZ-1 | 2026-09-03 11:54:10 | 64.06617 | -22.67966 | 58° | 38km/h | 18174m | 4.9m/s | -46.1°C | 0.9% | 0hPa | 0V | 00:00:00 | 00:00:00 | 00:00:00 | |
| DL9RDZ-1 | 2026-09-03 11:53:59 | 64.06578 | -22.68147 | 62° | 35km/h | 18116m | 3.9m/s | -46.2°C | 0.9% | 0hPa | 0V | 00:00:00 | 00:00:00 | 00:00:00 | |
| DL9RDZ-1 | 2026-09-03 11:53:48 | 64.06539 | -22.68372 | 70° | 40km/h | 18053m | 6.3m/s | -46.5°C | 0.9% | 0hPa | 0V | 00:00:00 | 00:00:00 | 00:00:00 | |
| DL9RDZ-1 | 2026-09-03 11:53:37 | 64.06496 | -22.68618 | 59° | 42km/h | 17994m | 4.1m/s | -46.5°C | 0.9% | 0hPa | 0V | 00:00:00 | 00:00:00 | 00:00:00 | |
| DL9RDZ-1 | 2026-09-03 11:52:32 | 64.06105 | -22.69910 | 27° | 26km/h | 17654m | 4.6m/s | -45.9°C | 1.0% | 0hPa | 0V | 00:00:00 | 00:00:00 | 00:00:00 | |
| DL9RDZ-1 | 2026-09-03 11:52:22 | 64.06055 | -22.70033 | 44° | 29km/h | 17600m | 3.0m/s | -45.9°C | 0.9% | 0hPa | 0V | 00:00:00 | 00:00:00 | 00:00:00 | |
| DL9RDZ-1 | 2026-09-03 11:52:11 | 64.06001 | -22.70189 | 55° | 27km/h | 17542m | 7.0m/s | -45.5°C | 0.9% | 0hPa | 0V | 00:00:00 | 00:00:00 | 00:00:00 | |
| DL9RDZ-1 | 2026-09-03 11:52:00 | 64.05959 | -22.70345 | 57° | 29km/h | 17482m | 4.6m/s | -45.3°C | 0.9% | 0hPa | 0V | 00:00:00 | 00:00:00 | 00:00:00 | |
| DL9RDZ-1 | 2026-09-03 11:51:50 | 64.05922 | -22.70493 | 67° | 33km/h | 17428m | 5.6m/s | -45.6°C | 0.9% | 0hPa | 0V | 00:00:00 | 00:00:00 | 00:00:00 | |
| DL9RDZ-1 | 2026-09-03 11:51:39 | 64.05880 | -22.70682 | 61° | 38km/h | 17371m | 3.9m/s | -45.4°C | 0.9% | 0hPa | 0V | 00:00:00 | 00:00:00 | 00:00:00 | |
| DL9RDZ-1 | 2026-09-03 11:51:29 | 64.05836 | -22.70855 | 64° | 29km/h | 17318m | 6.0m/s | -45.1°C | 0.9% | 0hPa | 0V | 00:00:00 | 00:00:00 | 00:00:00 | |
| DL9RDZ-1 | 2026-09-03 11:51:17 | 64.05804 | -22.71044 | 68° | 27km/h | 17256m | 4.9m/s | -45.0°C | 0.9% | 0hPa | 0V | 00:00:00 | 00:00:00 | 00:00:00 | |
| DL9RDZ-1 | 2026-09-03 11:51:07 | 64.05779 | -22.71190 | 65° | 31km/h | 17203m | 4.6m/s | -45.2°C | 0.9% | 0hPa | 0V | 00:00:00 | 00:00:00 | 00:00:00 | |
| DL9RDZ-1 | 2026-09-03 11:50:57 | 64.05738 | -22.71358 | 56° | 29km/h | 17148m | 5.5m/s | -45.4°C | 0.9% | 0hPa | 0V | 00:00:00 | 00:00:00 | 00:00:00 | |
| DL9RDZ-1 | 2026-09-03 11:50:46 | 64.05679 | -22.71520 | 57° | 31km/h | 17090m | 4.7m/s | -45.2°C | 0.9% | 0hPa | 0V | 00:00:00 | 00:00:00 | 00:00:00 | |
| DL9RDZ-1 | 2026-09-03 11:50:36 | 64.05637 | -22.71716 | 53° | 35km/h | 17033m | 5.2m/s | -45.2°C | 0.9% | 0hPa | 0V | 00:00:00 | 00:00:00 | 00:00:00 | |
| DL9RDZ-1 | 2026-09-03 11:50:26 | 64.05588 | -22.71867 | 58° | 33km/h | 16979m | 5.9m/s | -45.0°C | 0.9% | 0hPa | 0V | 00:00:00 | 00:00:00 | 00:00:00 | |
| DL9RDZ-1 | 2026-09-03 11:50:15 | 64.05540 | -22.72031 | 58° | 35km/h | 16926m | 6.4m/s | -45.0°C | 0.9% | 0hPa | 0V | 00:00:00 | 00:00:00 | 00:00:00 | |
| DL9RDZ-1 | 2026-09-03 11:50:04 | 64.05488 | -22.72238 | 59° | 40km/h | 16867m | 7.5m/s | -45.3°C | 0.9% | 0hPa | 0V | 00:00:00 | 00:00:00 | 00:00:00 | |
| DL9RDZ-1 | 2026-09-03 11:49:54 | 64.05436 | -22.72471 | 62° | 42km/h | 16812m | 6.8m/s | -45.0°C | 0.9% | 0hPa | 0V | 00:00:00 | 00:00:00 | 00:00:00 | |
| DL9RDZ-1 | 2026-09-03 11:49:43 | 64.05381 | -22.72692 | 53° | 42km/h | 16754m | 5.4m/s | -44.9°C | 0.9% | 0hPa | 0V | 00:00:00 | 00:00:00 | 00:00:00 | |
| DL9RDZ-1 | 2026-09-03 11:49:33 | 64.05318 | -22.72906 | 59° | 38km/h | 16699m | 4.6m/s | -45.2°C | 0.9% | 0hPa | 0V | 00:00:00 | 00:00:00 | 00:00:00 | |
| DL9RDZ-1 | 2026-09-03 11:49:21 | 64.05268 | -22.73093 | 62° | 40km/h | 16637m | 6.5m/s | -45.3°C | 0.9% | 0hPa | 0V | 00:00:00 | 00:00:00 | 00:00:00 | |
| DL9RDZ-1 | 2026-09-03 11:49:11 | 64.05215 | -22.73286 | 75° | 38km/h | 16583m | 5.0m/s | -45.2°C | 0.9% | 0hPa | 0V | 00:00:00 | 00:00:00 | 00:00:00 | |
| DL9RDZ-1 | 2026-09-03 11:49:02 | 64.05172 | -22.73492 | 65° | 40km/h | 16528m | 6.9m/s | -45.5°C | 0.9% | 0hPa | 0V | 00:00:00 | 00:00:00 | 00:00:00 | |
| DL9RDZ-1 | 2026-09-03 11:48:51 | 64.05119 | -22.73702 | 57° | 49km/h | 16477m | 5.1m/s | -45.7°C | 1.0% | 0hPa | 0V | 00:00:00 | 00:00:00 | 00:00:00 | |
| DL9RDZ-1 | 2026-09-03 11:48:40 | 64.05056 | -22.73907 | 54° | 38km/h | 16416m | 4.4m/s | -45.7°C | 1.0% | 0hPa | 0V | 00:00:00 | 00:00:00 | 00:00:00 | |
| DL9RDZ-1 | 2026-09-03 11:48:30 | 64.04989 | -22.74057 | 48° | 40km/h | 16351m | 5.8m/s | -45.7°C | 1.0% | 0hPa | 0V | 00:00:00 | 00:00:00 | 00:00:00 | |
| DL9RDZ-1 | 2026-09-03 11:48:20 | 64.04937 | -22.74169 | 39° | 31km/h | 16289m | 5.2m/s | -45.9°C | 1.0% | 0hPa | 0V | 00:00:00 | 00:00:00 | 00:00:00 | |
| DL9RDZ-1 | 2026-09-03 11:48:08 | 64.04880 | -22.74317 | 63° | 31km/h | 16219m | 4.1m/s | -45.7°C | 0.9% | 0hPa | 0V | 00:00:00 | 00:00:00 | 00:00:00 | |
| DL9RDZ-1 | 2026-09-03 11:47:59 | 64.04838 | -22.74477 | 69° | 35km/h | 16163m | 5.8m/s | -45.8°C | 1.0% | 0hPa | 0V | 00:00:00 | 00:00:00 | 00:00:00 | |
| DL9RDZ-1 | 2026-09-03 11:47:47 | 64.04806 | -22.74700 | 69° | 33km/h | 16095m | 4.8m/s | -45.9°C | 0.9% | 0hPa | 0V | 00:00:00 | 00:00:00 | 00:00:00 | |
| DL9RDZ-1 | 2026-09-03 11:47:38 | 64.04773 | -22.74890 | 65° | 40km/h | 16031m | 5.3m/s | -46.2°C | 1.0% | 0hPa | 0V | 00:00:00 | 00:00:00 | 00:00:00 | |
| DL9RDZ-1 | 2026-09-03 11:47:27 | 64.04725 | -22.75117 | 73° | 42km/h | 15963m | 5.4m/s | -46.1°C | 1.0% | 0hPa | 0V | 00:00:00 | 00:00:00 | 00:00:00 | |
| DL9RDZ-1 | 2026-09-03 11:47:16 | 64.04674 | -22.75310 | 58° | 38km/h | 15903m | 4.3m/s | -46.3°C | 1.0% | 0hPa | 0V | 00:00:00 | 00:00:00 | 00:00:00 | |
| DL9RDZ-1 | 2026-09-03 11:47:05 | 64.04627 | -22.75510 | 58° | 35km/h | 15834m | 6.5m/s | -46.4°C | 1.0% | 0hPa | 0V | 00:00:00 | 00:00:00 | 00:00:00 | |
| DL9RDZ-1 | 2026-09-03 11:46:41 | 64.04554 | -22.75934 | 67° | 33km/h | 15687m | 7.8m/s | -45.9°C | 1.0% | 0hPa | 0V | 00:00:00 | 00:00:00 | 00:00:00 | |
| DL9RDZ-1 | 2026-09-03 11:46:32 | 64.04521 | -22.76086 | 67° | 29km/h | 15626m | 7.0m/s | -46.0°C | 1.0% | 0hPa | 0V | 00:00:00 | 00:00:00 | 00:00:00 | |
| DL9RDZ-1 | 2026-09-03 11:46:20 | 64.04465 | -22.76256 | 61° | 26km/h | 15560m | 5.9m/s | -46.0°C | 1.0% | 0hPa | 0V | 00:00:00 | 00:00:00 | 00:00:00 | |
| DL9RDZ-1 | 2026-09-03 11:46:11 | 64.04420 | -22.76402 | 38° | 35km/h | 15497m | 5.8m/s | -46.0°C | 1.0% | 0hPa | 0V | 00:00:00 | 00:00:00 | 00:00:00 | |
| DL9RDZ-1 | 2026-09-03 11:45:59 | 64.04365 | -22.76586 | 49° | 35km/h | 15437m | 3.5m/s | -46.2°C | 1.0% | 0hPa | 0V | 00:00:00 | 00:00:00 | 00:00:00 | |
| DL9RDZ-1 | 2026-09-03 11:45:49 | 64.04319 | -22.76714 | 73° | 26km/h | 15382m | 3.7m/s | -46.0°C | 1.1% | 0hPa | 0V | 00:00:00 | 00:00:00 | 00:00:00 | |
| DL9RDZ-1 | 2026-09-03 11:45:38 | 64.04261 | -22.76839 | 45° | 29km/h | 15317m | 6.2m/s | -46.3°C | 1.1% | 0hPa | 0V | 00:00:00 | 00:00:00 | 00:00:00 | |
| DL9RDZ-1 | 2026-09-03 11:45:28 | 64.04205 | -22.76993 | 51° | 33km/h | 15246m | 5.4m/s | -45.9°C | 1.1% | 0hPa | 0V | 00:00:00 | 00:00:00 | 00:00:00 | |
| DL9RDZ-1 | 2026-09-03 11:45:17 | 64.04150 | -22.77129 | 40° | 35km/h | 15187m | 5.0m/s | -45.7°C | 1.1% | 0hPa | 0V | 00:00:00 | 00:00:00 | 00:00:00 | |
| DL9RDZ-1 | 2026-09-03 11:45:07 | 64.04088 | -22.77267 | 54° | 24km/h | 15125m | 6.6m/s | -45.4°C | 1.0% | 0hPa | 0V | 00:00:00 | 00:00:00 | 00:00:00 | |
| DL9RDZ-1 | 2026-09-03 11:44:55 | 64.04037 | -22.77410 | 54° | 31km/h | 15054m | 10.1m/s | -45.2°C | 1.0% | 0hPa | 0V | 00:00:00 | 00:00:00 | 00:00:00 | |
| DL9RDZ-1 | 2026-09-03 11:44:45 | 64.03967 | -22.77534 | 33° | 27km/h | 14983m | 4.8m/s | -45.1°C | 1.0% | 0hPa | 0V | 00:00:00 | 00:00:00 | 00:00:00 | |
| DL9RDZ-1 | 2026-09-03 11:44:33 | 64.03904 | -22.77674 | 32° | 24km/h | 14915m | 4.9m/s | -45.5°C | 1.1% | 0hPa | 0V | 00:00:00 | 00:00:00 | 00:00:00 | |
| DL9RDZ-1 | 2026-09-03 11:42:31 | 64.03345 | -22.79292 | 23° | 16km/h | 14177m | 6.0m/s | -44.9°C | 1.1% | 0hPa | 0V | 00:00:00 | 00:00:00 | 00:00:00 | |
| DL9RDZ-1 | 2026-09-03 11:42:21 | 64.03301 | -22.79358 | 28° | 18km/h | 14122m | 4.7m/s | -45.0°C | 1.1% | 0hPa | 0V | 00:00:00 | 00:00:00 | 00:00:00 | |
| DL9RDZ-1 | 2026-09-03 11:42:10 | 64.03258 | -22.79415 | 39° | 20km/h | 14060m | 6.3m/s | -44.9°C | 1.1% | 0hPa | 0V | 00:00:00 | 00:00:00 | 00:00:00 | |
| DL9RDZ-1 | 2026-09-03 11:41:59 | 64.03203 | -22.79508 | 48° | 27km/h | 13991m | 6.8m/s | -44.8°C | 1.1% | 0hPa | 0V | 00:00:00 | 00:00:00 | 00:00:00 | |
| DL9RDZ-1 | 2026-09-03 11:38:47 | 64.02132 | -22.81708 | 45° | 27km/h | 12876m | 5.9m/s | -45.1°C | 1.4% | 0hPa | 0V | 00:00:00 | 00:00:00 | 00:00:00 | |
| DL9RDZ-1 | 2026-09-03 11:38:36 | 64.02071 | -22.81855 | 44° | 35km/h | 12815m | 6.2m/s | -45.0°C | 1.3% | 0hPa | 0V | 00:00:00 | 00:00:00 | 00:00:00 | |
| DL9RDZ-1 | 2026-09-03 11:38:26 | 64.02017 | -22.81985 | 52° | 31km/h | 12759m | 6.1m/s | -44.8°C | 1.3% | 0hPa | 0V | 00:00:00 | 00:00:00 | 00:00:00 | |
| DL9RDZ-1 | 2026-09-03 11:38:15 | 64.01961 | -22.82113 | 53° | 37km/h | 12692m | 5.7m/s | -45.0°C | 1.4% | 0hPa | 0V | 00:00:00 | 00:00:00 | 00:00:00 | |
| DL9RDZ-1 | 2026-09-03 11:38:04 | 64.01880 | -22.82229 | 29° | 33km/h | 12623m | 7.7m/s | -45.4°C | 1.4% | 0hPa | 0V | 00:00:00 | 00:00:00 | 00:00:00 | |
| DL9RDZ-1 | 2026-09-03 11:37:54 | 64.01816 | -22.82318 | 34° | 24km/h | 12561m | 6.0m/s | -45.6°C | 1.5% | 0hPa | 0V | 00:00:00 | 00:00:00 | 00:00:00 | |
| DL9RDZ-1 | 2026-09-03 11:37:42 | 64.01745 | -22.82429 | 13° | 37km/h | 12488m | 6.3m/s | -45.9°C | 1.5% | 0hPa | 0V | 00:00:00 | 00:00:00 | 00:00:00 | |
| DL9RDZ-1 | 2026-09-03 11:37:31 | 64.01671 | -22.82482 | 43° | 22km/h | 12408m | 6.9m/s | -45.4°C | 1.6% | 0hPa | 0V | 00:00:00 | 00:00:00 | 00:00:00 | |
| DL9RDZ-1 | 2026-09-03 11:37:21 | 64.01619 | -22.82568 | 51° | 22km/h | 12340m | 7.2m/s | -45.7°C | 1.6% | 0hPa | 0V | 00:00:00 | 00:00:00 | 00:00:00 | |
| DL9RDZ-1 | 2026-09-03 11:37:11 | 64.01572 | -22.82687 | 38° | 27km/h | 12271m | 7.3m/s | -45.4°C | 1.6% | 0hPa | 0V | 00:00:00 | 00:00:00 | 00:00:00 | |
| DL9RDZ-1 | 2026-09-03 11:37:00 | 64.01523 | -22.82758 | 40° | 18km/h | 12204m | 7.5m/s | -45.5°C | 1.6% | 0hPa | 0V | 00:00:00 | 00:00:00 | 00:00:00 | |
| DL9RDZ-1 | 2026-09-03 11:36:49 | 64.01474 | -22.82816 | 29° | 18km/h | 12135m | 3.5m/s | -45.5°C | 1.5% | 0hPa | 0V | 00:00:00 | 00:00:00 | 00:00:00 | |
| DL9RDZ-1 | 2026-09-03 11:36:39 | 64.01421 | -22.82867 | 19° | 18km/h | 12070m | 6.8m/s | -45.6°C | 1.5% | 0hPa | 0V | 00:00:00 | 00:00:00 | 00:00:00 | |
| DL9RDZ-1 | 2026-09-03 11:36:10 | 64.01284 | -22.83084 | 10° | 20km/h | 11894m | 5.8m/s | -46.1°C | 1.6% | 0hPa | 0V | 00:00:00 | 00:00:00 | 00:00:00 | |
| DL9RDZ-1 | 2026-09-03 11:36:00 | 64.01213 | -22.83102 | 3° | 27km/h | 11832m | 6.7m/s | -46.4°C | 1.7% | 0hPa | 0V | 00:00:00 | 00:00:00 | 00:00:00 | |
| DL9RDZ-1 | 2026-09-03 11:35:49 | 64.01166 | -22.83195 | 41° | 37km/h | 11746m | 9.3m/s | -46.6°C | 1.8% | 0hPa | 0V | 00:00:00 | 00:00:00 | 00:00:00 | |
| DL9RDZ-1 | 2026-09-03 11:35:39 | 64.01104 | -22.83254 | 30° | 38km/h | 11668m | 7.8m/s | -46.9°C | 1.9% | 0hPa | 0V | 00:00:00 | 00:00:00 | 00:00:00 | |
| DL9RDZ-1 | 2026-09-03 11:35:28 | 64.01034 | -22.83312 | 361° | 22km/h | 11599m | 6.0m/s | -47.1°C | 2.1% | 0hPa | 0V | 00:00:00 | 00:00:00 | 00:00:00 | |
| DL9RDZ-1 | 2026-09-03 11:35:17 | 64.00970 | -22.83324 | 357° | 33km/h | 11521m | 5.9m/s | -47.1°C | 2.1% | 0hPa | 0V | 00:00:00 | 00:00:00 | 00:00:00 | |
| DL9RDZ-1 | 2026-09-03 11:35:06 | 64.00884 | -22.83321 | 4° | 29km/h | 11442m | 5.1m/s | -46.9°C | 1.9% | 0hPa | 0V | 00:00:00 | 00:00:00 | 00:00:00 | |
| DL9RDZ-1 | 2026-09-03 11:34:55 | 64.00810 | -22.83358 | 6° | 26km/h | 11375m | 5.6m/s | -46.9°C | 2.0% | 0hPa | 0V | 00:00:00 | 00:00:00 | 00:00:00 | |
| DL9RDZ-1 | 2026-09-03 11:34:44 | 64.00750 | -22.83385 | 39° | 22km/h | 11293m | 7.9m/s | -47.1°C | 2.1% | 0hPa | 0V | 00:00:00 | 00:00:00 | 00:00:00 | |
| DL9RDZ-1 | 2026-09-03 11:34:33 | 64.00703 | -22.83396 | 27° | 18km/h | 11221m | 6.7m/s | -47.9°C | 2.7% | 0hPa | 0V | 00:00:00 | 00:00:00 | 00:00:00 | |
| DL9RDZ-1 | 2026-09-03 11:32:10 | 63.99699 | -22.83153 | 339° | 42km/h | 10257m | 8.6m/s | -52.7°C | 19.9% | 0hPa | 0V | 00:00:00 | 00:00:00 | 00:00:00 | |
| DL9RDZ-1 | 2026-09-03 11:31:59 | 63.99603 | -22.83036 | 338° | 46km/h | 10180m | 7.5m/s | -53.2°C | 22.5% | 0hPa | 0V | 00:00:00 | 00:00:00 | 00:00:00 | |
| DL9RDZ-1 | 2026-09-03 11:31:49 | 63.99503 | -22.82865 | 320° | 40km/h | 10104m | 6.6m/s | -53.3°C | 23.4% | 0hPa | 0V | 00:00:00 | 00:00:00 | 00:00:00 | |
| DL9RDZ-1 | 2026-09-03 11:31:38 | 63.99408 | -22.82668 | 314° | 46km/h | 10032m | 6.4m/s | -52.9°C | 23.0% | 0hPa | 0V | 00:00:00 | 00:00:00 | 00:00:00 | |
| DL9RDZ-1 | 2026-09-03 11:31:27 | 63.99335 | -22.82482 | 315° | 42km/h | 9966m | 6.9m/s | -52.8°C | 21.7% | 0hPa | 0V | 00:00:00 | 00:00:00 | 00:00:00 | |
| DL9RDZ-1 | 2026-09-03 11:31:16 | 63.99262 | -22.82273 | 319° | 42km/h | 9901m | 5.6m/s | -52.4°C | 21.3% | 0hPa | 0V | 00:00:00 | 00:00:00 | 00:00:00 | |
| DL9RDZ-1 | 2026-09-03 11:31:06 | 63.99195 | -22.82168 | 336° | 35km/h | 9835m | 8.6m/s | -52.9°C | 26.1% | 0hPa | 0V | 00:00:00 | 00:00:00 | 00:00:00 | |
| DL9RDZ-1 | 2026-09-03 11:30:56 | 63.99109 | -22.82098 | 335° | 33km/h | 9770m | 4.4m/s | -52.5°C | 23.5% | 0hPa | 0V | 00:00:00 | 00:00:00 | 00:00:00 | |
| DL9RDZ-1 | 2026-09-03 11:30:45 | 63.99018 | -22.81941 | 314° | 44km/h | 9699m | 8.3m/s | -52.6°C | 23.3% | 0hPa | 0V | 00:00:00 | 00:00:00 | 00:00:00 | |
| DL9RDZ-1 | 2026-09-03 11:30:34 | 63.98939 | -22.81803 | 334° | 42km/h | 9630m | 9.2m/s | -52.4°C | 25.7% | 0hPa | 0V | 00:00:00 | 00:00:00 | 00:00:00 | |
| DL9RDZ-1 | 2026-09-03 11:30:23 | 63.98847 | -22.81620 | 324° | 42km/h | 9560m | 6.3m/s | -52.1°C | 28.0% | 0hPa | 0V | 00:00:00 | 00:00:00 | 00:00:00 | |
| DL9RDZ-1 | 2026-09-03 11:30:14 | 63.98780 | -22.81415 | 297° | 40km/h | 9496m | 5.5m/s | -52.0°C | 30.7% | 0hPa | 0V | 00:00:00 | 00:00:00 | 00:00:00 | |
| DL9RDZ-1 | 2026-09-03 11:29:51 | 63.98648 | -22.81021 | 307° | 47km/h | 9349m | 6.8m/s | -52.2°C | 35.4% | 0hPa | 0V | 00:00:00 | 00:00:00 | 00:00:00 | |
| DL9RDZ-1 | 2026-09-03 11:29:41 | 63.98597 | -22.80797 | 305° | 42km/h | 9278m | 7.5m/s | -51.8°C | 37.8% | 0hPa | 0V | 00:00:00 | 00:00:00 | 00:00:00 | |
| DL9RDZ-1 | 2026-09-03 11:29:30 | 63.98543 | -22.80584 | 286° | 46km/h | 9208m | 6.1m/s | -51.5°C | 38.2% | 0hPa | 0V | 00:00:00 | 00:00:00 | 00:00:00 | |
| DL9RDZ-1 | 2026-09-03 11:29:19 | 63.98496 | -22.80400 | 295° | 42km/h | 9145m | 5.0m/s | -51.4°C | 40.1% | 0hPa | 0V | 00:00:00 | 00:00:00 | 00:00:00 | |
| DL9RDZ-1 | 2026-09-03 11:29:08 | 63.98455 | -22.80196 | 303° | 29km/h | 9085m | 8.3m/s | -50.9°C | 39.6% | 0hPa | 0V | 00:00:00 | 00:00:00 | 00:00:00 | |
| DL9RDZ-1 | 2026-09-03 11:28:58 | 63.98438 | -22.80047 | 267° | 38km/h | 9022m | 5.6m/s | -50.3°C | 39.6% | 0hPa | 0V | 00:00:00 | 00:00:00 | 00:00:00 | |
| DL9RDZ-1 | 2026-09-03 11:28:47 | 63.98411 | -22.79890 | 283° | 40km/h | 8950m | 6.9m/s | -50.0°C | 39.9% | 0hPa | 0V | 00:00:00 | 00:00:00 | 00:00:00 | |
| DL9RDZ-1 | 2026-09-03 11:28:36 | 63.98399 | -22.79727 | 287° | 33km/h | 8883m | 4.4m/s | -49.5°C | 43.1% | 0hPa | 0V | 00:00:00 | 00:00:00 | 00:00:00 | |
| DL9RDZ-1 | 2026-09-03 11:28:26 | 63.98390 | -22.79584 | 293° | 29km/h | 8825m | 3.8m/s | -49.0°C | 40.2% | 0hPa | 0V | 00:00:00 | 00:00:00 | 00:00:00 | |
| DL9RDZ-1 | 2026-09-03 11:28:15 | 63.98400 | -22.79473 | 272° | 18km/h | 8756m | 5.0m/s | -48.4°C | 42.0% | 0hPa | 0V | 00:00:00 | 00:00:00 | 00:00:00 | |
| DL9RDZ-1 | 2026-09-03 11:28:04 | 63.98377 | -22.79366 | 278° | 22km/h | 8690m | 5.6m/s | -48.2°C | 50.3% | 0hPa | 0V | 00:00:00 | 00:00:00 | 00:00:00 | |
| DL9RDZ-1 | 2026-09-03 11:27:53 | 63.98362 | -22.79216 | 287° | 22km/h | 8626m | 7.5m/s | -47.8°C | 47.7% | 0hPa | 0V | 00:00:00 | 00:00:00 | 00:00:00 | |
| DL9RDZ-1 | 2026-09-03 11:27:42 | 63.98349 | -22.79064 | 266° | 31km/h | 8561m | 5.7m/s | -47.3°C | 54.1% | 0hPa | 0V | 00:00:00 | 00:00:00 | 00:00:00 | |
| DL9RDZ-1 | 2026-09-03 11:27:31 | 63.98343 | -22.78917 | 270° | 20km/h | 8499m | 7.0m/s | -46.9°C | 54.5% | 0hPa | 0V | 00:00:00 | 00:00:00 | 00:00:00 | |
| DL9RDZ-1 | 2026-09-03 11:27:21 | 63.98336 | -22.78787 | 276° | 31km/h | 8441m | 6.3m/s | -46.2°C | 55.3% | 0hPa | 0V | 00:00:00 | 00:00:00 | 00:00:00 | |
| DL9RDZ-1 | 2026-09-03 11:27:10 | 63.98323 | -22.78652 | 298° | 24km/h | 8378m | 5.7m/s | -45.7°C | 57.0% | 0hPa | 0V | 00:00:00 | 00:00:00 | 00:00:00 | |
| DL9RDZ-1 | 2026-09-03 11:26:59 | 63.98310 | -22.78501 | 279° | 31km/h | 8321m | 5.0m/s | -45.2°C | 52.9% | 0hPa | 0V | 00:00:00 | 00:00:00 | 00:00:00 | |
| DL9RDZ-1 | 2026-09-03 11:26:48 | 63.98298 | -22.78360 | 284° | 22km/h | 8263m | 6.1m/s | -44.7°C | 47.7% | 0hPa | 0V | 00:00:00 | 00:00:00 | 00:00:00 | |
| DL9RDZ-1 | 2026-09-03 11:26:38 | 63.98276 | -22.78211 | 263° | 24km/h | 8211m | 4.9m/s | -44.1°C | 44.8% | 0hPa | 0V | 00:00:00 | 00:00:00 | 00:00:00 | |
| DL9RDZ-1 | 2026-09-03 11:26:27 | 63.98253 | -22.78051 | 292° | 31km/h | 8152m | 6.8m/s | -43.6°C | 43.4% | 0hPa | 0V | 00:00:00 | 00:00:00 | 00:00:00 | |
| DL9RDZ-1 | 2026-09-03 11:26:16 | 63.98220 | -22.77903 | 301° | 15km/h | 8088m | 6.5m/s | -43.1°C | 47.7% | 0hPa | 0V | 00:00:00 | 00:00:00 | 00:00:00 | |
| DL9RDZ-1 | 2026-09-03 11:26:06 | 63.98199 | -22.77803 | 283° | 16km/h | 8026m | 6.4m/s | -42.5°C | 47.6% | 0hPa | 0V | 00:00:00 | 00:00:00 | 00:00:00 | |
| DL9RDZ-1 | 2026-09-03 11:25:55 | 63.98170 | -22.77665 | 275° | 42km/h | 7964m | 3.7m/s | -42.0°C | 49.4% | 0hPa | 0V | 00:00:00 | 00:00:00 | 00:00:00 | |
| DL9RDZ-1 | 2026-09-03 11:25:44 | 63.98141 | -22.77452 | 301° | 37km/h | 7901m | 4.7m/s | -41.6°C | 63.9% | 0hPa | 0V | 00:00:00 | 00:00:00 | 00:00:00 | |
| DL9RDZ-1 | 2026-09-03 11:25:33 | 63.98110 | -22.77253 | 280° | 29km/h | 7837m | 5.5m/s | -40.9°C | 65.0% | 0hPa | 0V | 00:00:00 | 00:00:00 | 00:00:00 | |
| DL9RDZ-1 | 2026-09-03 11:24:08 | 63.97839 | -22.75980 | 305° | 20km/h | 7346m | 5.9m/s | -36.5°C | 64.3% | 0hPa | 0V | 00:00:00 | 00:00:00 | 00:00:00 | |
| DL9RDZ-1 | 2026-09-03 11:23:54 | 63.97795 | -22.75792 | 285° | 27km/h | 7267m | 5.1m/s | -35.8°C | 63.9% | 0hPa | 0V | 00:00:00 | 00:00:00 | 00:00:00 | |
| DL9RDZ-1 | 2026-09-03 11:23:08 | 63.97680 | -22.75088 | 287° | 31km/h | 7000m | 6.1m/s | -33.4°C | 71.4% | 0hPa | 0V | 00:00:00 | 00:00:00 | 00:00:00 | |
| DL9RDZ-1 | 2026-09-03 11:22:57 | 63.97653 | -22.74920 | 283° | 22km/h | 6930m | 6.5m/s | -32.8°C | 77.3% | 0hPa | 0V | 00:00:00 | 00:00:00 | 00:00:00 | |
| DL9RDZ-1 | 2026-09-03 11:22:46 | 63.97631 | -22.74720 | 296° | 40km/h | 6864m | 5.7m/s | -32.3°C | 79.1% | 0hPa | 0V | 00:00:00 | 00:00:00 | 00:00:00 | |
| DL9RDZ-1 | 2026-09-03 11:22:35 | 63.97601 | -22.74542 | 289° | 18km/h | 6795m | 7.2m/s | -31.7°C | 84.6% | 0hPa | 0V | 00:00:00 | 00:00:00 | 00:00:00 | |
| DL9RDZ-1 | 2026-09-03 11:22:25 | 63.97582 | -22.74401 | 296° | 22km/h | 6737m | 5.6m/s | -31.2°C | 87.2% | 0hPa | 0V | 00:00:00 | 00:00:00 | 00:00:00 | |
| DL9RDZ-1 | 2026-09-03 11:22:15 | 63.97567 | -22.74254 | 293° | 33km/h | 6677m | 5.4m/s | -30.8°C | 88.8% | 0hPa | 0V | 00:00:00 | 00:00:00 | 00:00:00 | |
| DL9RDZ-1 | 2026-09-03 11:22:04 | 63.97562 | -22.74114 | 282° | 20km/h | 6607m | 5.5m/s | -30.2°C | 95.5% | 0hPa | 0V | 00:00:00 | 00:00:00 | 00:00:00 | |
| DL9RDZ-1 | 2026-09-03 11:21:53 | 63.97547 | -22.73948 | 264° | 31km/h | 6539m | 4.4m/s | -29.6°C | 95.5% | 0hPa | 0V | 00:00:00 | 00:00:00 | 00:00:00 | |
| DL9RDZ-1 | 2026-09-03 11:21:42 | 63.97552 | -22.73811 | 237° | 27km/h | 6470m | 6.5m/s | -29.0°C | 93.9% | 0hPa | 0V | 00:00:00 | 00:00:00 | 00:00:00 | |
| DL9RDZ-1 | 2026-09-03 11:21:31 | 63.97560 | -22.73692 | 291° | 18km/h | 6401m | 5.0m/s | -28.4°C | 91.4% | 0hPa | 0V | 00:00:00 | 00:00:00 | 00:00:00 | |
| DL9RDZ-1 | 2026-09-03 11:21:21 | 63.97560 | -22.73594 | 265° | 22km/h | 6340m | 6.0m/s | -27.9°C | 89.5% | 0hPa | 0V | 00:00:00 | 00:00:00 | 00:00:00 | |
| DL9RDZ-1 | 2026-09-03 11:21:10 | 63.97569 | -22.73501 | 287° | 11km/h | 6267m | 5.9m/s | -27.3°C | 86.8% | 0hPa | 0V | 00:00:00 | 00:00:00 | 00:00:00 | |
| DL9RDZ-1 | 2026-09-03 11:20:59 | 63.97561 | -22.73398 | 259° | 18km/h | 6198m | 7.2m/s | -26.8°C | 86.7% | 0hPa | 0V | 00:00:00 | 00:00:00 | 00:00:00 | |
| DL9RDZ-1 | 2026-09-03 11:20:48 | 63.97572 | -22.73344 | 311° | 15km/h | 6126m | 7.5m/s | -26.2°C | 83.9% | 0hPa | 0V | 00:00:00 | 00:00:00 | 00:00:00 | |
| DL9RDZ-1 | 2026-09-03 11:20:36 | 63.97556 | -22.73269 | 294° | 20km/h | 6050m | 5.6m/s | -25.7°C | 83.6% | 0hPa | 0V | 00:00:00 | 00:00:00 | 00:00:00 | |
| DL9RDZ-1 | 2026-09-03 11:18:55 | 63.97380 | -22.72908 | 243° | 4km/h | 5432m | 6.3m/s | -21.2°C | 82.3% | 0hPa | 0V | 00:00:00 | 00:00:00 | 00:00:00 | |
| DL9RDZ-1 | 2026-09-03 11:18:39 | 63.97360 | -22.72860 | 322° | 11km/h | 5335m | 6.7m/s | -20.5°C | 83.1% | 0hPa | 0V | 00:00:00 | 00:00:00 | 00:00:00 | |
| DL9RDZ-1 | 2026-09-03 11:18:15 | 63.97323 | -22.72798 | 340° | 13km/h | 5190m | 6.1m/s | -19.6°C | 83.8% | 0hPa | 0V | 00:00:00 | 00:00:00 | 00:00:00 | |
| DL9RDZ-1 | 2026-09-03 11:18:02 | 63.97299 | -22.72762 | 344° | 11km/h | 5112m | 6.1m/s | -19.2°C | 84.7% | 0hPa | 0V | 00:00:00 | 00:00:00 | 00:00:00 | |
| DL9RDZ-1 | 2026-09-03 11:17:52 | 63.97280 | -22.72726 | 345° | 4km/h | 5050m | 6.1m/s | -18.8°C | 85.6% | 0hPa | 0V | 00:00:00 | 00:00:00 | 00:00:00 | |
| DL9RDZ-1 | 2026-09-03 11:17:41 | 63.97256 | -22.72701 | 340° | 13km/h | 4989m | 5.8m/s | -18.5°C | 87.9% | 0hPa | 0V | 00:00:00 | 00:00:00 | 00:00:00 | |
| DL9RDZ-1 | 2026-09-03 11:17:30 | 63.97235 | -22.72683 | 7° | 9km/h | 4924m | 6.0m/s | -18.1°C | 88.9% | 0hPa | 0V | 00:00:00 | 00:00:00 | 00:00:00 | |
| DL9RDZ-1 | 2026-09-03 11:17:19 | 63.97203 | -22.72664 | 335° | 11km/h | 4857m | 5.9m/s | -17.7°C | 87.8% | 0hPa | 0V | 00:00:00 | 00:00:00 | 00:00:00 | |
| DL9RDZ-1 | 2026-09-03 11:17:09 | 63.97176 | -22.72632 | 325° | 13km/h | 4798m | 6.0m/s | -17.4°C | 88.9% | 0hPa | 0V | 00:00:00 | 00:00:00 | 00:00:00 | |
| DL9RDZ-1 | 2026-09-03 11:16:58 | 63.97147 | -22.72580 | 343° | 13km/h | 4731m | 5.7m/s | -17.0°C | 88.7% | 0hPa | 0V | 00:00:00 | 00:00:00 | 00:00:00 | |
| DL9RDZ-1 | 2026-09-03 11:16:47 | 63.97108 | -22.72507 | 295° | 20km/h | 4664m | 7.2m/s | -16.5°C | 88.2% | 0hPa | 0V | 00:00:00 | 00:00:00 | 00:00:00 | |
| DL9RDZ-1 | 2026-09-03 11:16:37 | 63.97080 | -22.72425 | 323° | 15km/h | 4604m | 6.8m/s | -16.2°C | 88.8% | 0hPa | 0V | 00:00:00 | 00:00:00 | 00:00:00 | |
| DL9RDZ-1 | 2026-09-03 11:16:27 | 63.97045 | -22.72352 | 293° | 24km/h | 4543m | 5.7m/s | -15.8°C | 87.9% | 0hPa | 0V | 00:00:00 | 00:00:00 | 00:00:00 | |
| DL9RDZ-1 | 2026-09-03 11:16:16 | 63.97017 | -22.72258 | 311° | 13km/h | 4483m | 6.1m/s | -15.4°C | 88.2% | 0hPa | 0V | 00:00:00 | 00:00:00 | 00:00:00 | |
| DL9RDZ-1 | 2026-09-03 11:16:06 | 63.96985 | -22.72174 | 313° | 26km/h | 4426m | 6.6m/s | -15.1°C | 88.4% | 0hPa | 0V | 00:00:00 | 00:00:00 | 00:00:00 | |
| DL9RDZ-1 | 2026-09-03 11:15:55 | 63.96952 | -22.72052 | 314° | 20km/h | 4363m | 5.8m/s | -14.6°C | 87.7% | 0hPa | 0V | 00:00:00 | 00:00:00 | 00:00:00 | |
| DL9RDZ-1 | 2026-09-03 11:15:44 | 63.96918 | -22.71945 | 292° | 26km/h | 4297m | 6.3m/s | -14.2°C | 86.6% | 0hPa | 0V | 00:00:00 | 00:00:00 | 00:00:00 | |
| DL9RDZ-1 | 2026-09-03 11:15:33 | 63.96902 | -22.71810 | 280° | 22km/h | 4229m | 5.6m/s | -14.0°C | 88.0% | 0hPa | 0V | 00:00:00 | 00:00:00 | 00:00:00 | |
| DL9RDZ-1 | 2026-09-03 11:15:22 | 63.96882 | -22.71664 | 290° | 26km/h | 4161m | 5.6m/s | -13.6°C | 87.9% | 0hPa | 0V | 00:00:00 | 00:00:00 | 00:00:00 | |
| DL9RDZ-1 | 2026-09-03 11:15:11 | 63.96857 | -22.71531 | 307° | 27km/h | 4098m | 4.6m/s | -13.3°C | 89.5% | 0hPa | 0V | 00:00:00 | 00:00:00 | 00:00:00 | |
| DL9RDZ-1 | 2026-09-03 11:15:01 | 63.96829 | -22.71399 | 299° | 31km/h | 4040m | 6.3m/s | -12.9°C | 88.3% | 0hPa | 0V | 00:00:00 | 00:00:00 | 00:00:00 | |
| DL9RDZ-1 | 2026-09-03 11:14:50 | 63.96799 | -22.71243 | 297° | 31km/h | 3973m | 5.9m/s | -12.5°C | 88.2% | 0hPa | 0V | 00:00:00 | 00:00:00 | 00:00:00 | |
| DL9RDZ-1 | 2026-09-03 11:14:29 | 63.96746 | -22.70950 | 292° | 27km/h | 3849m | 6.9m/s | -11.8°C | 88.1% | 0hPa | 0V | 00:00:00 | 00:00:00 | 00:00:00 | |
| DL9RDZ-1 | 2026-09-03 11:14:18 | 63.96712 | -22.70785 | 299° | 33km/h | 3782m | 6.2m/s | -11.4°C | 88.6% | 0hPa | 0V | 00:00:00 | 00:00:00 | 00:00:00 | |
| DL9RDZ-1 | 2026-09-03 11:14:08 | 63.96686 | -22.70642 | 300° | 20km/h | 3721m | 5.4m/s | -11.1°C | 90.8% | 0hPa | 0V | 00:00:00 | 00:00:00 | 00:00:00 | |
| DL9RDZ-1 | 2026-09-03 11:13:58 | 63.96641 | -22.70495 | 294° | 29km/h | 3658m | 6.3m/s | -10.8°C | 89.5% | 0hPa | 0V | 00:00:00 | 00:00:00 | 00:00:00 | |
| DL9RDZ-1 | 2026-09-03 11:13:47 | 63.96608 | -22.70346 | 291° | 26km/h | 3600m | 5.5m/s | -10.5°C | 88.8% | 0hPa | 0V | 00:00:00 | 00:00:00 | 00:00:00 | |
| DL9RDZ-1 | 2026-09-03 11:13:37 | 63.96577 | -22.70192 | 296° | 33km/h | 3545m | 6.8m/s | -10.2°C | 87.9% | 0hPa | 0V | 00:00:00 | 00:00:00 | 00:00:00 | |
| DL9RDZ-1 | 2026-09-03 11:13:26 | 63.96540 | -22.70016 | 295° | 35km/h | 3477m | 5.1m/s | -9.7°C | 87.4% | 0hPa | 0V | 00:00:00 | 00:00:00 | 00:00:00 | |
| DL9RDZ-1 | 2026-09-03 11:13:16 | 63.96516 | -22.69840 | 271° | 31km/h | 3422m | 5.1m/s | -9.4°C | 85.9% | 0hPa | 0V | 00:00:00 | 00:00:00 | 00:00:00 | |
| DL9RDZ-1 | 2026-09-03 11:13:05 | 63.96506 | -22.69663 | 286° | 33km/h | 3362m | 6.2m/s | -9.0°C | 84.6% | 0hPa | 0V | 00:00:00 | 00:00:00 | 00:00:00 | |
| DL9RDZ-1 | 2026-09-03 11:12:54 | 63.96493 | -22.69490 | 273° | 22km/h | 3300m | 5.2m/s | -8.7°C | 84.7% | 0hPa | 0V | 00:00:00 | 00:00:00 | 00:00:00 | |
| DL9RDZ-1 | 2026-09-03 11:12:43 | 63.96485 | -22.69313 | 268° | 31km/h | 3240m | 5.5m/s | -8.6°C | 85.3% | 0hPa | 0V | 00:00:00 | 00:00:00 | 00:00:00 | |
| DL9RDZ-1 | 2026-09-03 11:12:34 | 63.96476 | -22.69154 | 282° | 22km/h | 3186m | 6.9m/s | -8.4°C | 84.4% | 0hPa | 0V | 00:00:00 | 00:00:00 | 00:00:00 | |
| DL9RDZ-1 | 2026-09-03 11:12:22 | 63.96476 | -22.68989 | 264° | 27km/h | 3122m | 4.6m/s | -8.3°C | 86.3% | 0hPa | 0V | 00:00:00 | 00:00:00 | 00:00:00 | |
| DL9RDZ-1 | 2026-09-03 11:12:16 | 63.96477 | -22.68840 | 267° | 24km/h | 3065m | 7.2m/s | -8.2°C | 87.1% | 0hPa | 0V | 00:00:00 | 00:00:00 | 00:00:00 | |
| DL9RDZ-1 | 2026-09-03 11:12:01 | 63.96490 | -22.68731 | 264° | 22km/h | 2998m | 6.0m/s | -8.1°C | 88.2% | 0hPa | 0V | 00:00:00 | 00:00:00 | 00:00:00 | |
| DL9RDZ-1 | 2026-09-03 11:11:51 | 63.96503 | -22.68600 | 260° | 20km/h | 2943m | 4.7m/s | -8.1°C | 90.2% | 0hPa | 0V | 00:00:00 | 00:00:00 | 00:00:00 | |
| DL9RDZ-1 | 2026-09-03 11:11:41 | 63.96513 | -22.68460 | 265° | 26km/h | 2892m | 4.3m/s | -8.2°C | 92.2% | 0hPa | 0V | 00:00:00 | 00:00:00 | 00:00:00 | |
| DL9RDZ-1 | 2026-09-03 11:11:30 | 63.96534 | -22.68322 | 234° | 20km/h | 2832m | 6.7m/s | -8.1°C | 92.6% | 0hPa | 0V | 00:00:00 | 00:00:00 | 00:00:00 | |
| DL9RDZ-1 | 2026-09-03 11:11:20 | 63.96555 | -22.68232 | 237° | 20km/h | 2773m | 6.0m/s | -7.7°C | 91.2% | 0hPa | 0V | 00:00:00 | 00:00:00 | 00:00:00 | |
| DL9RDZ-1 | 2026-09-03 11:11:09 | 63.96586 | -22.68142 | 255° | 18km/h | 2711m | 5.2m/s | -7.3°C | 94.4% | 0hPa | 0V | 00:00:00 | 00:00:00 | 00:00:00 | |
| DL9RDZ-1 | 2026-09-03 11:10:58 | 63.96605 | -22.68052 | 241° | 13km/h | 2649m | 5.5m/s | -6.9°C | 96.3% | 0hPa | 0V | 00:00:00 | 00:00:00 | 00:00:00 | |
| DL9RDZ-1 | 2026-09-03 11:10:48 | 63.96618 | -22.67977 | 261° | 13km/h | 2592m | 6.1m/s | -6.5°C | 96.5% | 0hPa | 0V | 00:00:00 | 00:00:00 | 00:00:00 | |
| DL9RDZ-1 | 2026-09-03 11:10:38 | 63.96620 | -22.67910 | 276° | 13km/h | 2531m | 6.8m/s | -6.1°C | 96.0% | 0hPa | 0V | 00:00:00 | 00:00:00 | 00:00:00 | |
| DL9RDZ-1 | 2026-09-03 11:10:27 | 63.96613 | -22.67823 | 273° | 11km/h | 2464m | 6.1m/s | -5.7°C | 96.5% | 0hPa | 0V | 00:00:00 | 00:00:00 | 00:00:00 | |
| DL9RDZ-1 | 2026-09-03 11:10:16 | 63.96606 | -22.67745 | 291° | 15km/h | 2398m | 7.4m/s | -5.3°C | 95.8% | 0hPa | 0V | 00:00:00 | 00:00:00 | 00:00:00 | |
| DL9RDZ-1 | 2026-09-03 11:10:05 | 63.96588 | -22.67643 | 282° | 20km/h | 2331m | 6.0m/s | -5.0°C | 95.5% | 0hPa | 0V | 00:00:00 | 00:00:00 | 00:00:00 | |
| DL9RDZ-1 | 2026-09-03 11:09:55 | 63.96566 | -22.67533 | 298° | 24km/h | 2275m | 6.0m/s | -4.6°C | 95.9% | 0hPa | 0V | 00:00:00 | 00:00:00 | 00:00:00 | |
| DL9RDZ-1 | 2026-09-03 11:09:44 | 63.96541 | -22.67400 | 300° | 16km/h | 2215m | 4.7m/s | -4.3°C | 97.4% | 0hPa | 0V | 00:00:00 | 00:00:00 | 00:00:00 | |
| DL9RDZ-1 | 2026-09-03 11:09:34 | 63.96508 | -22.67298 | 313° | 27km/h | 2165m | 5.8m/s | -4.2°C | 98.1% | 0hPa | 0V | 00:00:00 | 00:00:00 | 00:00:00 | |
| DL9RDZ-1 | 2026-09-03 11:09:24 | 63.96467 | -22.67161 | 301° | 26km/h | 2111m | 4.9m/s | -3.8°C | 97.5% | 0hPa | 0V | 00:00:00 | 00:00:00 | 00:00:00 | |
| DL9RDZ-1 | 2026-09-03 11:09:13 | 63.96415 | -22.67012 | 314° | 33km/h | 2054m | 5.9m/s | -3.5°C | 98.0% | 0hPa | 0V | 00:00:00 | 00:00:00 | 00:00:00 | |
| DL9RDZ-1 | 2026-09-03 11:09:01 | 63.96369 | -22.66865 | 292° | 26km/h | 1990m | 6.5m/s | -3.0°C | 96.2% | 0hPa | 0V | 00:00:00 | 00:00:00 | 00:00:00 | |
| DL9RDZ-1 | 2026-09-03 11:08:47 | 63.96295 | -22.66672 | 318° | 37km/h | 1917m | 4.6m/s | -2.9°C | 0% | 0hPa | 0V | 00:00:00 | 00:00:00 | 00:00:00 | |
| DL9RDZ-1 | 2026-09-03 11:08:36 | 63.96232 | -22.66482 | 301° | 40km/h | 1865m | 4.6m/s | -2.9°C | 0% | 0hPa | 0V | 00:00:00 | 00:00:00 | 00:00:00 | |
| DL9RDZ-1 | 2026-09-03 11:07:43 | 63.95939 | -22.65236 | 300° | 51km/h | 1614m | 4.9m/s | -1.7°C | 0% | 0hPa | 0V | 00:00:00 | 00:00:00 | 00:00:00 | |
| DL9RDZ-1 | 2026-09-03 11:07:32 | 63.95897 | -22.64956 | 278° | 44km/h | 1566m | 4.6m/s | -1.5°C | 0% | 0hPa | 0V | 00:00:00 | 00:00:00 | 00:00:00 | |
| DL9RDZ-1 | 2026-09-03 11:07:22 | 63.95882 | -22.64722 | 273° | 38km/h | 1521m | 4.8m/s | -1.5°C | 0% | 0hPa | 0V | 00:00:00 | 00:00:00 | 00:00:00 | |
| DL9RDZ-1 | 2026-09-03 11:07:12 | 63.95863 | -22.64548 | 277° | 22km/h | 1469m | 5.4m/s | -1.1°C | 0% | 0hPa | 0V | 00:00:00 | 00:00:00 | 00:00:00 | |
| DL9RDZ-1 | 2026-09-03 11:06:59 | 63.95843 | -22.64410 | 296° | 16km/h | 1401m | 4.6m/s | -0.9°C | 0% | 0hPa | 0V | 00:00:00 | 00:00:00 | 00:00:00 | |
| DL9RDZ-1 | 2026-09-03 11:06:46 | 63.95808 | -22.64326 | 309° | 20km/h | 1328m | 6.2m/s | -0.3°C | 0% | 0hPa | 0V | 00:00:00 | 00:00:00 | 00:00:00 | |
| DL9RDZ-1 | 2026-09-03 11:06:34 | 63.95775 | -22.64242 | 263° | 15km/h | 1262m | 7.4m/s | 0.1°C | 0% | 0hPa | 0V | 00:00:00 | 00:00:00 | 00:00:00 | |
| DL9RDZ-1 | 2026-09-03 11:06:24 | 63.95773 | -22.64186 | 238° | 16km/h | 1202m | 7.3m/s | 0.7°C | 0% | 0hPa | 0V | 00:00:00 | 00:00:00 | 00:00:00 | |
| DL9RDZ-1 | 2026-09-03 11:06:13 | 63.95775 | -22.64115 | 245° | 16km/h | 1144m | 6.5m/s | 1.2°C | 0% | 0hPa | 0V | 00:00:00 | 00:00:00 | 00:00:00 |